Colbert, WA (99005)

6:49 AM PDT on August 03, 2015 (GMT -0700)
Little Spokane/Shady Slope | | Change Station
CLOSE
Current Station
Personal Weather Station
Location: Spokane, WA
Elevation: 1667 ft
Nearby Weather Stations

Elev 1667 ft 47.80 °N, 117.38 °W | Updated 2 seconds ago

Clear
Clear
52.7 °F
Feels Like 52.7 °F
N
0.0
Wind Variable Wind from South
Gusts 0.0 mph

Today
High -- | Low -- °F
--% Chance of Precip.
Yesterday
High -- | Low -- °F
Precip. -- in
5:28 AM 8:21 PM
Waning Gibbous, 86% visible
Pressure 29.83 in
Visibility 3.0 miles
Clouds Clear
Dew Point 45 °F
Humidity 76%
Rainfall 0.00 in
Snow Depth Not available.
UV 1.0 out of 12
Pollen 6.60 out of 12
Air Quality Not available.
Flu Activity Not available.
SPECI KDEW 031336Z AUTO 33005KT 3SM HZ CLR 14/03 A2983 RMK AO2 T01390028

More Conditions Fewer Conditions

Pressure 29.83 in
Visibility 3.0 miles
Clouds Clear
Dew Point 45 °F
Humidity 76%
Rainfall 0.00 in
Snow Depth Not available.
UV 1.0 out of 12
Pollen 6.60 out of 12
Air Quality Not available.
Flu Activity Not available.
SPECI KDEW 031336Z AUTO 33005KT 3SM HZ CLR 14/03 A2983 RMK AO2 T01390028

More Conditions Fewer Conditions

10-Day Weather Forecast

×

Almanac

Astronomy

Aug. 03, 2015 Rise Set
Actual Time
Civil Twilight
Nautical Twilight
Astronomical Twilight
Moon
Length of Visible Light
Length of Day
Tomorrow will be .
, % of the Moon is Illuminated

Today's Extremes

State Highs State Lows

Community

WunderPhotos

Upload Photos

1,843,634 photos uploaded!

WunderBlogs® & News

Nearby

Air Quality

  Air Quality AQ Index Pollutant
Not available.

Snow Depth

Station Depth Elevation

Earthquake Activity

City Distance Mag. Time & Date
Minimum magnitude displayed is 2.5.

Coastal Water Temperatures

Place Temperature

Stations

Nearby Weather Stations

Station Location Temp. Windchill Dew Point Humidity Wind Precip. Elev Updated Type